Tawakoni's Hourly Summary for Thursday, July 5, 2018
Hour Temp
(f)
RH
(%)
Solar Rad.
(MJ/m2)
Rainfall
(in)
Wind
(mph)
7/5/2018 12:00 AM 76 75 0 0 3.7
7/5/2018 1:00 AM 74 79 0 0 1.3
7/5/2018 2:00 AM 72 83 0 0 0
7/5/2018 3:00 AM 70 89 0 0 0
7/5/2018 4:00 AM 69 91 0 0 0
7/5/2018 5:00 AM 70 91 0 0 0
7/5/2018 6:00 AM 70 91 0 0 0
7/5/2018 7:00 AM 69 93 0.04 0 0
7/5/2018 8:00 AM 72 85 0.47 0 0
7/5/2018 9:00 AM 79 68 1.11 0 0
7/5/2018 10:00 AM 81 64 1.57 0 0.19
7/5/2018 11:00 AM 84 52 1.99 0 1.63
7/5/2018 12:00 PM 87 46 2.77 0 3.85
7/5/2018 1:00 PM 89 44 2.91 0 4.89
7/5/2018 2:00 PM 91 39 3.1 0 4.67
7/5/2018 3:00 PM 93 32 3.1 0 4.85
7/5/2018 4:00 PM 93 33 2.83 0 5.19
7/5/2018 5:00 PM 94 34 2.47 0 5.49
7/5/2018 6:00 PM 94 35 1.43 0 4.01
7/5/2018 7:00 PM 84 42 0.19 0.09 5.52
7/5/2018 8:00 PM 80 73 0.16 0 1.09
7/5/2018 9:00 PM 79 72 0.03 0 0.54
7/5/2018 10:00 PM 78 75 0 0 0
7/5/2018 11:00 PM 78 76 0 0 0
Data Summary 80 65 24.17 0.09 1.96